EZY13ZA EGKK-LSGG
Flight info
| Callsign | EZY13ZA |
|---|---|
| Flight time | 1h 17m |
| Altitude | 35000 |
| Route | BOGNA L612 XAMAB UL612 VEULE DCT PEKIM DCT PILUL DCT PIMUP DCT PIXIS DCT PIBAT DCT LUSAR |
| Aircraft | A320/M-SDE3FGHIRWY/LB1 |
Departure
| Time | 2026-04-15 15:25 |
|---|---|
| Airport | London Gatwick Airport (EGKK) |
Arrival
| Time | 2026-04-15 16:42 |
|---|---|
| Airport | Geneva International Airport (LSGG) |
| Time | Latitude | Longitude | Altitude | Speed | Heading |
|---|---|---|---|---|---|
| 2026-04-15 14:54 | 51.15591 | -0.17621 | 213 ft | 0 kts | 347° |
| 2026-04-15 15:11 | 51.15587 | -0.17619 | 214 ft | 2 kts | 347° |
| 2026-04-15 15:11 | 51.15569 | -0.17613 | 208 ft | 2 kts | 347° |
| 2026-04-15 15:11 | 51.15552 | -0.17608 | 212 ft | 3 kts | 5° |
| 2026-04-15 15:11 | 51.15534 | -0.17616 | 215 ft | 3 kts | 41° |
| 2026-04-15 15:12 | 51.15522 | -0.17640 | 214 ft | 3 kts | 68° |
| 2026-04-15 15:12 | 51.15517 | -0.17662 | 215 ft | 1 kts | 78° |
| 2026-04-15 15:12 | 51.15517 | -0.17668 | 214 ft | 0 kts | 78° |
| 2026-04-15 15:17 | 51.15520 | -0.17645 | 214 ft | 8 kts | 78° |
| 2026-04-15 15:17 | 51.15536 | -0.17524 | 208 ft | 11 kts | 78° |
| 2026-04-15 15:17 | 51.15506 | -0.17428 | 207 ft | 13 kts | 157° |
| 2026-04-15 15:18 | 51.15412 | -0.17391 | 204 ft | 15 kts | 167° |
| 2026-04-15 15:18 | 51.15305 | -0.17353 | 208 ft | 17 kts | 167° |
| 2026-04-15 15:18 | 51.15233 | -0.17303 | 206 ft | 17 kts | 144° |
| 2026-04-15 15:18 | 51.15184 | -0.17165 | 208 ft | 14 kts | 82° |
| 2026-04-15 15:19 | 51.15204 | -0.17018 | 207 ft | 13 kts | 77° |
| 2026-04-15 15:19 | 51.15222 | -0.16889 | 207 ft | 9 kts | 78° |
| 2026-04-15 15:19 | 51.15221 | -0.16857 | 204 ft | 0 kts | 104° |
| 2026-04-15 15:22 | 51.15213 | -0.16833 | 206 ft | 8 kts | 122° |
| 2026-04-15 15:22 | 51.15137 | -0.16805 | 202 ft | 14 kts | 210° |
| 2026-04-15 15:23 | 51.15109 | -0.16892 | 208 ft | 0 kts | 257° |
| 2026-04-15 15:24 | 51.15109 | -0.16893 | 207 ft | 2 kts | 257° |
| 2026-04-15 15:24 | 51.15076 | -0.17123 | 204 ft | 55 kts | 258° |
| 2026-04-15 15:24 | 51.14943 | -0.18097 | 205 ft | 122 kts | 258° |
| 2026-04-15 15:25 | 51.14734 | -0.19661 | 432 ft | 149 kts | 251° |
| 2026-04-15 15:25 | 51.14531 | -0.21172 | 1408 ft | 133 kts | 251° |
| 2026-04-15 15:25 | 51.14371 | -0.22644 | 2096 ft | 140 kts | 253° |
| 2026-04-15 15:25 | 51.14149 | -0.24269 | 2480 ft | 161 kts | 252° |
| 2026-04-15 15:26 | 51.13867 | -0.26144 | 2854 ft | 187 kts | 252° |
| 2026-04-15 15:26 | 51.13559 | -0.28228 | 3575 ft | 197 kts | 252° |
| 2026-04-15 15:26 | 51.13248 | -0.30377 | 4498 ft | 202 kts | 253° |
| 2026-04-15 15:26 | 51.12931 | -0.32592 | 4908 ft | 206 kts | 253° |
| 2026-04-15 15:27 | 51.12616 | -0.34827 | 5757 ft | 206 kts | 253° |
| 2026-04-15 15:27 | 51.12305 | -0.37064 | 6724 ft | 207 kts | 253° |
| 2026-04-15 15:27 | 51.11989 | -0.39308 | 7626 ft | 208 kts | 251° |
| 2026-04-15 15:27 | 51.11295 | -0.41268 | 8516 ft | 207 kts | 220° |
| 2026-04-15 15:28 | 51.09957 | -0.42118 | 9425 ft | 218 kts | 188° |
| 2026-04-15 15:28 | 51.08414 | -0.41995 | 10346 ft | 223 kts | 184° |
| 2026-04-15 15:28 | 51.06842 | -0.41790 | 11027 ft | 235 kts | 183° |
| 2026-04-15 15:28 | 51.05132 | -0.41571 | 11426 ft | 256 kts | 182° |
| 2026-04-15 15:29 | 51.03328 | -0.41331 | 12150 ft | 263 kts | 182° |
| 2026-04-15 15:29 | 51.01489 | -0.41077 | 12986 ft | 267 kts | 182° |
| 2026-04-15 15:29 | 50.99626 | -0.40822 | 13860 ft | 270 kts | 182° |
| 2026-04-15 15:29 | 50.97741 | -0.40572 | 14615 ft | 273 kts | 182° |
| 2026-04-15 15:30 | 50.95836 | -0.40324 | 15373 ft | 276 kts | 182° |
| 2026-04-15 15:30 | 50.93916 | -0.40073 | 16151 ft | 278 kts | 182° |
| 2026-04-15 15:30 | 50.91983 | -0.39823 | 16916 ft | 280 kts | 182° |
| 2026-04-15 15:30 | 50.90031 | -0.39572 | 17678 ft | 283 kts | 181° |
| 2026-04-15 15:31 | 50.88066 | -0.39322 | 18430 ft | 285 kts | 181° |
| 2026-04-15 15:31 | 50.86106 | -0.39074 | 19055 ft | 288 kts | 181° |
| 2026-04-15 15:31 | 50.84083 | -0.38660 | 19747 ft | 294 kts | 173° |
| 2026-04-15 15:31 | 50.82165 | -0.37521 | 20441 ft | 305 kts | 160° |
| 2026-04-15 15:32 | 50.80327 | -0.35685 | 21156 ft | 310 kts | 156° |
| 2026-04-15 15:32 | 50.78550 | -0.33831 | 21838 ft | 310 kts | 156° |
| 2026-04-15 15:32 | 50.76745 | -0.31950 | 22542 ft | 311 kts | 156° |
| 2026-04-15 15:32 | 50.74938 | -0.30071 | 23230 ft | 311 kts | 156° |
| 2026-04-15 15:33 | 50.73100 | -0.28166 | 23878 ft | 312 kts | 156° |
| 2026-04-15 15:33 | 50.71298 | -0.26308 | 24407 ft | 314 kts | 156° |
| 2026-04-15 15:33 | 50.69457 | -0.24414 | 24874 ft | 320 kts | 156° |
| 2026-04-15 15:33 | 50.67552 | -0.22448 | 24989 ft | 335 kts | 156° |
| 2026-04-15 15:34 | 50.65559 | -0.20380 | 25116 ft | 350 kts | 155° |
| 2026-04-15 15:34 | 50.63497 | -0.18224 | 25334 ft | 360 kts | 155° |
| 2026-04-15 15:34 | 50.61400 | -0.16013 | 25706 ft | 365 kts | 155° |
| 2026-04-15 15:34 | 50.59281 | -0.13768 | 26172 ft | 369 kts | 155° |
| 2026-04-15 15:35 | 50.57136 | -0.11503 | 26663 ft | 373 kts | 155° |
| 2026-04-15 15:35 | 50.54973 | -0.09233 | 27096 ft | 375 kts | 155° |
| 2026-04-15 15:35 | 50.52789 | -0.06951 | 27509 ft | 378 kts | 155° |
| 2026-04-15 15:35 | 50.50587 | -0.04661 | 27921 ft | 381 kts | 155° |
| 2026-04-15 15:36 | 50.48371 | -0.02361 | 28322 ft | 383 kts | 155° |
| 2026-04-15 15:36 | 50.46139 | -0.00043 | 28652 ft | 386 kts | 155° |
| 2026-04-15 15:36 | 50.43890 | 0.02293 | 29052 ft | 388 kts | 155° |
| 2026-04-15 15:36 | 50.41631 | 0.04639 | 29406 ft | 391 kts | 155° |
| 2026-04-15 15:37 | 50.39344 | 0.07007 | 29700 ft | 396 kts | 155° |
| 2026-04-15 15:37 | 50.37035 | 0.09390 | 30052 ft | 399 kts | 155° |
| 2026-04-15 15:37 | 50.34706 | 0.11792 | 30377 ft | 402 kts | 155° |
| 2026-04-15 15:37 | 50.32367 | 0.14204 | 30678 ft | 404 kts | 155° |
| 2026-04-15 15:38 | 50.30016 | 0.16629 | 30979 ft | 406 kts | 155° |
| 2026-04-15 15:38 | 50.27651 | 0.19064 | 31277 ft | 408 kts | 155° |
| 2026-04-15 15:38 | 50.25273 | 0.21510 | 31573 ft | 411 kts | 155° |
| 2026-04-15 15:38 | 50.22881 | 0.23969 | 31890 ft | 411 kts | 155° |
| 2026-04-15 15:39 | 50.20496 | 0.26419 | 32293 ft | 410 kts | 155° |
| 2026-04-15 15:39 | 50.18110 | 0.28869 | 32615 ft | 411 kts | 155° |
| 2026-04-15 15:39 | 50.15720 | 0.31322 | 32922 ft | 412 kts | 155° |
| 2026-04-15 15:39 | 50.13327 | 0.33781 | 33289 ft | 412 kts | 155° |
| 2026-04-15 15:40 | 50.10935 | 0.36244 | 33677 ft | 411 kts | 155° |
| 2026-04-15 15:40 | 50.08550 | 0.38698 | 34069 ft | 411 kts | 156° |
| 2026-04-15 15:40 | 50.06163 | 0.41145 | 34397 ft | 410 kts | 156° |
| 2026-04-15 15:40 | 50.03773 | 0.43589 | 34668 ft | 411 kts | 155° |
| 2026-04-15 15:41 | 50.01379 | 0.46030 | 34877 ft | 412 kts | 155° |
| 2026-04-15 15:41 | 49.98974 | 0.48473 | 35057 ft | 414 kts | 155° |
| 2026-04-15 15:41 | 49.94222 | 0.53317 | 35112 ft | 404 kts | 155° |
| 2026-04-15 15:42 | 49.89525 | 0.58090 | 35114 ft | 403 kts | 155° |
| 2026-04-15 15:42 | 49.84915 | 0.63085 | 35117 ft | 412 kts | 147° |
| 2026-04-15 15:43 | 49.80715 | 0.69196 | 35117 ft | 414 kts | 146° |
| 2026-04-15 15:43 | 49.76549 | 0.75279 | 35114 ft | 414 kts | 146° |
| 2026-04-15 15:44 | 49.72347 | 0.81366 | 35096 ft | 414 kts | 146° |
| 2026-04-15 15:44 | 49.68133 | 0.87463 | 35103 ft | 415 kts | 146° |
| 2026-04-15 15:45 | 49.63915 | 0.93551 | 35089 ft | 416 kts | 145° |
| 2026-04-15 15:45 | 49.59676 | 0.99654 | 35106 ft | 417 kts | 145° |
| 2026-04-15 15:46 | 49.55431 | 1.05755 | 35114 ft | 417 kts | 145° |
| 2026-04-15 15:46 | 49.51181 | 1.11845 | 35097 ft | 418 kts | 145° |
| 2026-04-15 15:47 | 49.46916 | 1.17925 | 35107 ft | 418 kts | 145° |
| 2026-04-15 15:47 | 49.42641 | 1.24019 | 35112 ft | 419 kts | 146° |
| 2026-04-15 15:48 | 49.38356 | 1.30120 | 35117 ft | 420 kts | 145° |
| 2026-04-15 15:48 | 49.34094 | 1.36169 | 35115 ft | 420 kts | 144° |
| 2026-04-15 15:49 | 49.29788 | 1.42256 | 35133 ft | 421 kts | 144° |
| 2026-04-15 15:49 | 49.25486 | 1.48322 | 35124 ft | 421 kts | 144° |
| 2026-04-15 15:50 | 49.21178 | 1.54388 | 35132 ft | 421 kts | 144° |
| 2026-04-15 15:50 | 49.16865 | 1.60441 | 35137 ft | 421 kts | 144° |
| 2026-04-15 15:51 | 49.12553 | 1.66486 | 35143 ft | 421 kts | 145° |
| 2026-04-15 15:51 | 49.08238 | 1.72516 | 35144 ft | 420 kts | 145° |
| 2026-04-15 15:52 | 49.03917 | 1.78531 | 35143 ft | 421 kts | 144° |
| 2026-04-15 15:52 | 48.99572 | 1.84565 | 35156 ft | 423 kts | 144° |
| 2026-04-15 15:53 | 48.95216 | 1.90598 | 35164 ft | 423 kts | 144° |
| 2026-04-15 15:53 | 48.90869 | 1.96609 | 35165 ft | 422 kts | 144° |
| 2026-04-15 15:54 | 48.86551 | 2.02582 | 35166 ft | 422 kts | 144° |
| 2026-04-15 15:54 | 48.82207 | 2.08567 | 35163 ft | 422 kts | 144° |
| 2026-04-15 15:55 | 48.77860 | 2.14537 | 35160 ft | 421 kts | 144° |
| 2026-04-15 15:55 | 48.73513 | 2.20497 | 35138 ft | 421 kts | 144° |
| 2026-04-15 15:56 | 48.69161 | 2.26445 | 35169 ft | 421 kts | 144° |
| 2026-04-15 15:56 | 48.64801 | 2.32387 | 35174 ft | 422 kts | 144° |
| 2026-04-15 15:57 | 48.60441 | 2.38324 | 35164 ft | 422 kts | 144° |
| 2026-04-15 15:57 | 48.56065 | 2.44253 | 35167 ft | 423 kts | 144° |
| 2026-04-15 15:58 | 48.51684 | 2.50179 | 35169 ft | 423 kts | 144° |
| 2026-04-15 15:58 | 48.47301 | 2.56095 | 35168 ft | 423 kts | 144° |
| 2026-04-15 15:59 | 48.42910 | 2.62008 | 35154 ft | 423 kts | 144° |
| 2026-04-15 15:59 | 48.38520 | 2.67907 | 35165 ft | 424 kts | 144° |
| 2026-04-15 16:00 | 48.34139 | 2.73789 | 35170 ft | 424 kts | 144° |
| 2026-04-15 16:00 | 48.29729 | 2.79682 | 35177 ft | 424 kts | 144° |
| 2026-04-15 16:01 | 48.25269 | 2.85458 | 35182 ft | 422 kts | 147° |
| 2026-04-15 16:01 | 48.20629 | 2.90825 | 35180 ft | 420 kts | 149° |
| 2026-04-15 16:02 | 48.16732 | 2.95175 | 35166 ft | 420 kts | 149° |
| 2026-04-15 16:02 | 48.12057 | 3.00468 | 35153 ft | 421 kts | 149° |
| 2026-04-15 16:03 | 48.07265 | 3.05409 | 35162 ft | 413 kts | 160° |
| 2026-04-15 16:03 | 48.02033 | 3.08805 | 35165 ft | 409 kts | 163° |
| 2026-04-15 16:04 | 47.96782 | 3.12105 | 35152 ft | 409 kts | 163° |
| 2026-04-15 16:04 | 47.91522 | 3.15393 | 35160 ft | 410 kts | 163° |
| 2026-04-15 16:05 | 47.86253 | 3.18689 | 35167 ft | 411 kts | 163° |
| 2026-04-15 16:05 | 47.80977 | 3.21992 | 35168 ft | 411 kts | 163° |
| 2026-04-15 16:06 | 47.75701 | 3.25296 | 35174 ft | 412 kts | 163° |
| 2026-04-15 16:06 | 47.70417 | 3.28599 | 35162 ft | 412 kts | 163° |
| 2026-04-15 16:07 | 47.65125 | 3.31884 | 35164 ft | 412 kts | 163° |
| 2026-04-15 16:08 | 47.57172 | 3.36796 | 35153 ft | 413 kts | 162° |
| 2026-04-15 16:08 | 47.51857 | 3.40083 | 35144 ft | 415 kts | 162° |
| 2026-04-15 16:09 | 47.46564 | 3.43361 | 35153 ft | 416 kts | 162° |
| 2026-04-15 16:09 | 47.41223 | 3.46657 | 35158 ft | 416 kts | 162° |
| 2026-04-15 16:10 | 47.35865 | 3.49933 | 35163 ft | 417 kts | 162° |
| 2026-04-15 16:10 | 47.30506 | 3.53217 | 35156 ft | 417 kts | 162° |
| 2026-04-15 16:11 | 47.25142 | 3.56503 | 35158 ft | 418 kts | 162° |
| 2026-04-15 16:11 | 47.19759 | 3.59778 | 35159 ft | 418 kts | 162° |
| 2026-04-15 16:12 | 47.14381 | 3.63054 | 35165 ft | 419 kts | 162° |
| 2026-04-15 16:12 | 47.08996 | 3.66326 | 35157 ft | 419 kts | 162° |
| 2026-04-15 16:13 | 47.03605 | 3.69595 | 35159 ft | 420 kts | 162° |
| 2026-04-15 16:13 | 46.98253 | 3.73072 | 35162 ft | 425 kts | 154° |
| 2026-04-15 16:13 | 46.95841 | 3.75616 | 35163 ft | 431 kts | 142° |
| 2026-04-15 16:14 | 46.93776 | 3.78843 | 35168 ft | 438 kts | 130° |
| 2026-04-15 16:14 | 46.92165 | 3.82654 | 35166 ft | 444 kts | 118° |
| 2026-04-15 16:14 | 46.91006 | 3.86856 | 35167 ft | 446 kts | 114° |
| 2026-04-15 16:15 | 46.88779 | 3.95325 | 35150 ft | 447 kts | 114° |
| 2026-04-15 16:15 | 46.86518 | 4.03794 | 35160 ft | 448 kts | 114° |
| 2026-04-15 16:16 | 46.84248 | 4.12270 | 35162 ft | 448 kts | 113° |
| 2026-04-15 16:16 | 46.81986 | 4.20694 | 35169 ft | 448 kts | 113° |
| 2026-04-15 16:17 | 46.80087 | 4.29364 | 35171 ft | 451 kts | 103° |
| 2026-04-15 16:17 | 46.78803 | 4.38328 | 35178 ft | 451 kts | 103° |
| 2026-04-15 16:18 | 46.77489 | 4.47284 | 35072 ft | 455 kts | 104° |
| 2026-04-15 16:18 | 46.76823 | 4.51784 | 34803 ft | 453 kts | 103° |
| 2026-04-15 16:18 | 46.76161 | 4.56270 | 34540 ft | 451 kts | 103° |
| 2026-04-15 16:18 | 46.75504 | 4.60732 | 34280 ft | 450 kts | 103° |
| 2026-04-15 16:19 | 46.74846 | 4.65182 | 33898 ft | 447 kts | 103° |
| 2026-04-15 16:19 | 46.74190 | 4.69601 | 33524 ft | 445 kts | 103° |
| 2026-04-15 16:19 | 46.73533 | 4.73999 | 33029 ft | 442 kts | 103° |
| 2026-04-15 16:19 | 46.72878 | 4.78368 | 32509 ft | 439 kts | 103° |
| 2026-04-15 16:20 | 46.72228 | 4.82703 | 31999 ft | 436 kts | 103° |
| 2026-04-15 16:20 | 46.71583 | 4.87009 | 31498 ft | 434 kts | 103° |
| 2026-04-15 16:20 | 46.70942 | 4.91285 | 31003 ft | 431 kts | 103° |
| 2026-04-15 16:20 | 46.70304 | 4.95536 | 30532 ft | 428 kts | 103° |
| 2026-04-15 16:21 | 46.69667 | 4.99757 | 30007 ft | 425 kts | 103° |
| 2026-04-15 16:21 | 46.69033 | 5.03936 | 29453 ft | 422 kts | 103° |
| 2026-04-15 16:21 | 46.68399 | 5.08097 | 28908 ft | 419 kts | 103° |
| 2026-04-15 16:21 | 46.67766 | 5.12227 | 28376 ft | 417 kts | 103° |
| 2026-04-15 16:22 | 46.67134 | 5.16334 | 27848 ft | 414 kts | 103° |
| 2026-04-15 16:22 | 46.66516 | 5.20361 | 27341 ft | 412 kts | 103° |
| 2026-04-15 16:22 | 46.65899 | 5.24423 | 26838 ft | 409 kts | 103° |
| 2026-04-15 16:22 | 46.65291 | 5.28465 | 26338 ft | 407 kts | 102° |
| 2026-04-15 16:23 | 46.64688 | 5.32479 | 25847 ft | 405 kts | 102° |
| 2026-04-15 16:23 | 46.64085 | 5.36473 | 25357 ft | 403 kts | 102° |
| 2026-04-15 16:23 | 46.63484 | 5.40443 | 24903 ft | 400 kts | 102° |
| 2026-04-15 16:23 | 46.62886 | 5.44380 | 24435 ft | 397 kts | 102° |
| 2026-04-15 16:24 | 46.62286 | 5.48299 | 23977 ft | 395 kts | 102° |
| 2026-04-15 16:24 | 46.61689 | 5.52184 | 23479 ft | 393 kts | 102° |
| 2026-04-15 16:24 | 46.61087 | 5.56050 | 22937 ft | 391 kts | 102° |
| 2026-04-15 16:24 | 46.60486 | 5.59896 | 22409 ft | 389 kts | 102° |
| 2026-04-15 16:25 | 46.59886 | 5.63723 | 21887 ft | 387 kts | 103° |
| 2026-04-15 16:25 | 46.59289 | 5.67523 | 21390 ft | 385 kts | 102° |
| 2026-04-15 16:25 | 46.58702 | 5.71261 | 20891 ft | 383 kts | 102° |
| 2026-04-15 16:25 | 46.58100 | 5.75071 | 20394 ft | 381 kts | 103° |
| 2026-04-15 16:26 | 46.57295 | 5.78625 | 20152 ft | 371 kts | 115° |
| 2026-04-15 16:26 | 46.55951 | 5.81816 | 19691 ft | 369 kts | 129° |
| 2026-04-15 16:26 | 46.54127 | 5.84415 | 19239 ft | 365 kts | 144° |
| 2026-04-15 16:26 | 46.52070 | 5.86497 | 18793 ft | 356 kts | 146° |
| 2026-04-15 16:27 | 46.50055 | 5.88509 | 18338 ft | 349 kts | 146° |
| 2026-04-15 16:27 | 46.48072 | 5.90495 | 17830 ft | 342 kts | 146° |
| 2026-04-15 16:27 | 46.46132 | 5.92444 | 17332 ft | 337 kts | 146° |
| 2026-04-15 16:27 | 46.44218 | 5.94368 | 16843 ft | 333 kts | 146° |
| 2026-04-15 16:28 | 46.42319 | 5.96270 | 16360 ft | 329 kts | 146° |
| 2026-04-15 16:28 | 46.40428 | 5.98158 | 15885 ft | 331 kts | 146° |
| 2026-04-15 16:28 | 46.38526 | 6.00056 | 15412 ft | 332 kts | 146° |
| 2026-04-15 16:28 | 46.36538 | 6.01653 | 14949 ft | 324 kts | 162° |
| 2026-04-15 16:29 | 46.34343 | 6.02170 | 14495 ft | 317 kts | 183° |
| 2026-04-15 16:29 | 46.32214 | 6.01549 | 14048 ft | 310 kts | 204° |
| 2026-04-15 16:29 | 46.30404 | 5.99941 | 13581 ft | 303 kts | 224° |
| 2026-04-15 16:29 | 46.28917 | 5.97786 | 13191 ft | 302 kts | 227° |
| 2026-04-15 16:30 | 46.27449 | 5.95633 | 12798 ft | 300 kts | 227° |
| 2026-04-15 16:30 | 46.25986 | 5.93499 | 12417 ft | 298 kts | 226° |
| 2026-04-15 16:30 | 46.24523 | 5.91371 | 12027 ft | 298 kts | 227° |
| 2026-04-15 16:30 | 46.23061 | 5.89245 | 11660 ft | 298 kts | 226° |
| 2026-04-15 16:31 | 46.21604 | 5.87129 | 11287 ft | 296 kts | 226° |
| 2026-04-15 16:31 | 46.20154 | 5.85024 | 10920 ft | 295 kts | 226° |
| 2026-04-15 16:31 | 46.18709 | 5.82929 | 10556 ft | 293 kts | 226° |
| 2026-04-15 16:31 | 46.17275 | 5.80851 | 10196 ft | 291 kts | 225° |
| 2026-04-15 16:32 | 46.15850 | 5.78787 | 9813 ft | 289 kts | 225° |
| 2026-04-15 16:32 | 46.14458 | 5.76770 | 9422 ft | 286 kts | 226° |
| 2026-04-15 16:32 | 46.13058 | 5.74741 | 9036 ft | 284 kts | 226° |
| 2026-04-15 16:32 | 46.11669 | 5.72731 | 8651 ft | 282 kts | 225° |
| 2026-04-15 16:33 | 46.10294 | 5.70738 | 8257 ft | 279 kts | 226° |
| 2026-04-15 16:33 | 46.08936 | 5.68771 | 7886 ft | 273 kts | 225° |
| 2026-04-15 16:33 | 46.07619 | 5.66867 | 7512 ft | 263 kts | 225° |
| 2026-04-15 16:33 | 46.06321 | 5.65064 | 7145 ft | 255 kts | 218° |
| 2026-04-15 16:34 | 46.04787 | 5.63950 | 6997 ft | 244 kts | 194° |
| 2026-04-15 16:34 | 46.03110 | 5.63799 | 6999 ft | 243 kts | 171° |
| 2026-04-15 16:34 | 46.01532 | 5.64643 | 7000 ft | 245 kts | 146° |
| 2026-04-15 16:34 | 46.00333 | 5.66356 | 7000 ft | 245 kts | 121° |
| 2026-04-15 16:35 | 45.99723 | 5.68623 | 7004 ft | 244 kts | 97° |
| 2026-04-15 16:35 | 45.99803 | 5.71041 | 7002 ft | 243 kts | 73° |
| 2026-04-15 16:35 | 46.00438 | 5.73288 | 6997 ft | 244 kts | 65° |
| 2026-04-15 16:35 | 46.01135 | 5.75513 | 6992 ft | 244 kts | 65° |
| 2026-04-15 16:36 | 46.01832 | 5.77742 | 6796 ft | 243 kts | 65° |
| 2026-04-15 16:36 | 46.02617 | 5.79883 | 6610 ft | 242 kts | 52° |
| 2026-04-15 16:36 | 46.03771 | 5.81644 | 6414 ft | 242 kts | 45° |
| 2026-04-15 16:36 | 46.04954 | 5.83364 | 6169 ft | 241 kts | 45° |
| 2026-04-15 16:37 | 46.06129 | 5.85076 | 6015 ft | 240 kts | 45° |
| 2026-04-15 16:37 | 46.07301 | 5.86791 | 5749 ft | 242 kts | 45° |
| 2026-04-15 16:37 | 46.08464 | 5.88491 | 5437 ft | 240 kts | 45° |
| 2026-04-15 16:37 | 46.09645 | 5.90211 | 5112 ft | 236 kts | 45° |
| 2026-04-15 16:38 | 46.10783 | 5.91866 | 4805 ft | 229 kts | 45° |
| 2026-04-15 16:38 | 46.11888 | 5.93476 | 4496 ft | 223 kts | 44° |
| 2026-04-15 16:38 | 46.12928 | 5.94992 | 4205 ft | 207 kts | 44° |
| 2026-04-15 16:38 | 46.13901 | 5.96411 | 3962 ft | 193 kts | 43° |
| 2026-04-15 16:39 | 46.14832 | 5.97768 | 3686 ft | 189 kts | 44° |
| 2026-04-15 16:39 | 46.15752 | 5.99111 | 3443 ft | 188 kts | 44° |
| 2026-04-15 16:39 | 46.16657 | 6.00432 | 3190 ft | 179 kts | 45° |
| 2026-04-15 16:39 | 46.17493 | 6.01653 | 2962 ft | 163 kts | 44° |
| 2026-04-15 16:40 | 46.18259 | 6.02773 | 2749 ft | 151 kts | 44° |
| 2026-04-15 16:40 | 46.18981 | 6.03828 | 2535 ft | 145 kts | 45° |
| 2026-04-15 16:40 | 46.19682 | 6.04852 | 2337 ft | 143 kts | 45° |
| 2026-04-15 16:40 | 46.20382 | 6.05860 | 2122 ft | 141 kts | 46° |
| 2026-04-15 16:41 | 46.21071 | 6.06860 | 1898 ft | 140 kts | 47° |
| 2026-04-15 16:41 | 46.21748 | 6.07873 | 1730 ft | 141 kts | 46° |
| 2026-04-15 16:41 | 46.22430 | 6.08872 | 1564 ft | 139 kts | 46° |
| 2026-04-15 16:41 | 46.23102 | 6.09863 | 1410 ft | 129 kts | 46° |
| 2026-04-15 16:42 | 46.23614 | 6.10618 | 1383 ft | 80 kts | 45° |
| 2026-04-15 16:42 | 46.23851 | 6.10967 | 1380 ft | 17 kts | 55° |
| 2026-04-15 16:42 | 46.23822 | 6.11071 | 1379 ft | 1 kts | 163° |
| 2026-04-15 16:42 | 46.23821 | 6.11071 | 1379 ft | 0 kts | 164° |
| 2026-04-15 16:43 | 46.23795 | 6.11079 | 1377 ft | 3 kts | 171° |
| 2026-04-15 16:43 | 46.23794 | 6.11079 | 1377 ft | 0 kts | 170° |
| 2026-04-15 16:43 | 46.23776 | 6.11083 | 1381 ft | 5 kts | 171° |
| 2026-04-15 16:44 | 46.23762 | 6.11087 | 1382 ft | 0 kts | 171° |
| 2026-04-15 16:44 | 46.23728 | 6.11085 | 1385 ft | 11 kts | 189° |
| 2026-04-15 16:44 | 46.23678 | 6.11041 | 1388 ft | 6 kts | 225° |
| 2026-04-15 16:44 | 46.23637 | 6.10980 | 1390 ft | 13 kts | 225° |
| 2026-04-15 16:45 | 46.23577 | 6.10893 | 1389 ft | 11 kts | 225° |
| 2026-04-15 16:45 | 46.23525 | 6.10816 | 1391 ft | 10 kts | 225° |
| 2026-04-15 16:45 | 46.23473 | 6.10739 | 1402 ft | 13 kts | 225° |
| 2026-04-15 16:45 | 46.23410 | 6.10651 | 1392 ft | 12 kts | 219° |
| 2026-04-15 16:46 | 46.23355 | 6.10577 | 1397 ft | 10 kts | 225° |
| 2026-04-15 16:46 | 46.23323 | 6.10532 | 1397 ft | 9 kts | 225° |
| 2026-04-15 16:46 | 46.23276 | 6.10462 | 1394 ft | 13 kts | 225° |
| 2026-04-15 16:46 | 46.23194 | 6.10350 | 1396 ft | 11 kts | 203° |
| 2026-04-15 16:47 | 46.23132 | 6.10399 | 1394 ft | 7 kts | 125° |
| 2026-04-15 16:47 | 46.23127 | 6.10478 | 1400 ft | 4 kts | 91° |
| 2026-04-15 16:47 | 46.23126 | 6.10512 | 1400 ft | 3 kts | 90° |
| 2026-04-15 16:47 | 46.23126 | 6.10513 | 1400 ft | 0 kts | 90° |